createdAt,value
2019-02-07T00:01:01.134Z,17.63
2019-02-07T00:03:30.447Z,21.37
2019-02-07T00:05:59.832Z,16.87
2019-02-07T00:08:29.132Z,21.47
2019-02-07T00:10:58.528Z,23.50
2019-02-07T00:13:27.847Z,23.30
2019-02-07T00:15:57.212Z,23.50
2019-02-07T00:18:26.564Z,19.10
2019-02-07T00:20:55.932Z,22.43
2019-02-07T00:23:25.289Z,22.57
2019-02-07T00:25:54.616Z,21.17
2019-02-07T00:28:23.956Z,28.70
2019-02-07T00:30:53.303Z,23.73
2019-02-07T00:33:22.707Z,24.97
2019-02-07T00:35:54.634Z,26.00
2019-02-07T00:38:24.068Z,19.70
2019-02-07T00:40:53.445Z,21.57
2019-02-07T00:43:22.823Z,22.00
2019-02-07T00:45:52.179Z,22.93
2019-02-07T00:48:21.547Z,26.77
2019-02-07T00:50:51.387Z,24.93
2019-02-07T00:53:20.798Z,21.23
2019-02-07T00:55:50.216Z,26.57
2019-02-07T00:58:19.561Z,23.53
2019-02-07T01:00:49.351Z,22.47
2019-02-07T01:03:18.812Z,24.07
2019-02-07T01:05:48.120Z,21.83
2019-02-07T01:08:17.550Z,22.13
2019-02-07T01:10:46.847Z,21.43
2019-02-07T01:13:16.173Z,19.60
2019-02-07T01:15:45.474Z,23.23
2019-02-07T01:18:14.807Z,23.67
2019-02-07T01:20:44.196Z,22.17
2019-02-07T01:23:13.566Z,22.40
2019-02-07T01:25:42.880Z,24.57
2019-02-07T01:28:12.189Z,24.50
2019-02-07T01:30:41.617Z,20.77
2019-02-07T01:33:10.921Z,21.90
2019-02-07T01:35:40.252Z,25.13
2019-02-07T01:38:09.583Z,19.23
2019-02-07T01:40:38.981Z,22.13
2019-02-07T01:43:08.385Z,19.43
2019-02-07T01:45:37.799Z,23.30
2019-02-07T01:48:07.168Z,25.00
2019-02-07T01:50:36.501Z,24.67
2019-02-07T01:53:05.840Z,26.33
2019-02-07T01:55:35.231Z,25.60
2019-02-07T01:58:04.723Z,19.73
2019-02-07T02:00:34.060Z,29.67
2019-02-07T02:03:03.435Z,26.70
2019-02-07T02:05:33.019Z,24.67
2019-02-07T02:08:02.376Z,24.80
2019-02-07T02:10:31.751Z,28.07
2019-02-07T02:13:01.145Z,25.47
2019-02-07T02:15:30.451Z,20.83
2019-02-07T02:17:59.768Z,25.83
2019-02-07T02:20:29.214Z,26.20
2019-02-07T02:22:58.516Z,26.50
2019-02-07T02:25:27.871Z,24.87
2019-02-07T02:27:57.557Z,18.73
2019-02-07T02:30:28.905Z,35.83
2019-02-07T02:32:58.338Z,25.80
2019-02-07T02:35:27.650Z,27.80
2019-02-07T02:37:57.127Z,33.63
2019-02-07T02:40:26.631Z,32.33
2019-02-07T02:42:56.567Z,29.87
2019-02-07T02:45:37.086Z,28.30
2019-02-07T02:47:57.566Z,29.17
2019-02-07T02:50:26.901Z,31.77
2019-02-07T02:52:56.247Z,26.27
2019-02-07T02:55:30.022Z,33.97
2019-02-07T02:57:59.589Z,32.07
2019-02-07T03:00:47.920Z,28.67
2019-02-07T03:03:51.336Z,34.40
2019-02-07T03:06:40.014Z,32.13
2019-02-07T03:09:34.727Z,29.40
2019-02-07T03:12:23.504Z,25.90
2019-02-07T03:15:26.930Z,32.17
2019-02-07T03:18:18.380Z,23.27
2019-02-07T03:21:08.172Z,26.37
2019-02-07T03:23:59.307Z,28.13
2019-02-07T03:26:50.411Z,24.57
2019-02-07T03:29:48.076Z,29.37
2019-02-07T03:32:32.493Z,23.50
2019-02-07T03:35:21.648Z,28.50
2019-02-07T03:37:58.309Z,29.93
2019-02-07T03:40:58.442Z,27.17
2019-02-07T03:43:39.636Z,29.30
2019-02-07T03:46:37.121Z,25.17
2019-02-07T03:49:28.161Z,23.50
2019-02-07T03:52:22.190Z,20.10
2019-02-07T03:55:09.143Z,29.17
2019-02-07T03:58:09.487Z,24.27
2019-02-07T04:00:47.548Z,24.73
2019-02-07T04:03:44.702Z,27.23
2019-02-07T04:06:36.035Z,26.73
2019-02-07T04:09:22.125Z,27.30
2019-02-07T04:12:22.438Z,23.70
2019-02-07T04:15:16.521Z,25.50
2019-02-07T04:18:04.776Z,24.27
2019-02-07T04:20:53.044Z,20.50
2019-02-07T04:23:44.363Z,23.73
2019-02-07T04:26:41.442Z,26.30
2019-02-07T04:29:20.807Z,24.87
2019-02-07T04:32:07.797Z,22.90
2019-02-07T04:35:03.720Z,24.43
2019-02-07T04:37:50.219Z,19.77
2019-02-07T04:40:38.480Z,24.67
2019-02-07T04:43:28.445Z,24.87
2019-02-07T04:46:26.719Z,20.87
2019-02-07T04:49:07.161Z,22.33
2019-02-07T04:52:08.127Z,23.87
2019-02-07T04:54:55.141Z,20.90
2019-02-07T04:57:33.940Z,21.67
2019-02-07T05:00:16.247Z,20.53
2019-02-07T05:03:02.923Z,24.43
2019-02-07T05:05:57.283Z,23.70
2019-02-07T05:08:44.161Z,24.67
2019-02-07T05:11:36.272Z,22.37
2019-02-07T05:14:33.891Z,23.77
2019-02-07T05:17:25.235Z,20.97
2019-02-07T05:20:12.009Z,20.57
2019-02-07T05:22:58.839Z,22.03
2019-02-07T05:26:02.066Z,18.03
2019-02-07T05:29:05.432Z,20.70
2019-02-07T05:31:49.659Z,18.87
2019-02-07T05:34:46.805Z,19.63
2019-02-07T05:37:41.013Z,18.33
2019-02-07T05:40:18.006Z,20.13
2019-02-07T05:43:05.526Z,19.40
2019-02-07T05:45:49.913Z,22.53
2019-02-07T05:48:37.292Z,22.87
2019-02-07T05:51:28.459Z,18.43
2019-02-07T05:54:15.866Z,20.83
2019-02-07T05:57:02.811Z,16.13
2019-02-07T05:59:45.297Z,21.00
2019-02-07T06:02:21.782Z,20.40
2019-02-07T06:05:19.112Z,18.43
2019-02-07T06:08:07.759Z,20.03
2019-02-07T06:11:08.240Z,16.67
2019-02-07T06:14:08.701Z,17.97
2019-02-07T06:17:02.808Z,15.97
2019-02-07T06:19:41.126Z,16.03
2019-02-07T06:22:18.693Z,18.23
2019-02-07T06:25:16.139Z,17.63
2019-02-07T06:28:04.479Z,18.53
2019-02-07T06:30:47.892Z,17.00
2019-02-07T06:33:36.173Z,15.57
2019-02-07T06:36:33.710Z,18.43
2019-02-07T06:39:37.134Z,19.53
2019-02-07T06:42:28.598Z,15.27
2019-02-07T06:45:08.414Z,15.63
2019-02-07T06:48:05.592Z,19.80
2019-02-07T06:51:02.674Z,15.20
2019-02-07T06:53:46.330Z,16.40
2019-02-07T06:56:52.886Z,16.80
2019-02-07T06:59:38.524Z,16.70
2019-02-07T07:02:25.728Z,15.83
2019-02-07T07:05:12.615Z,17.53
2019-02-07T07:08:00.952Z,20.40
2019-02-07T07:10:47.802Z,17.70
2019-02-07T07:13:36.304Z,19.83
2019-02-07T07:16:27.719Z,17.37
2019-02-07T07:19:07.979Z,19.93
2019-02-07T07:21:56.286Z,17.87
2019-02-07T07:24:57.016Z,22.23
2019-02-07T07:27:48.113Z,19.33
2019-02-07T07:30:35.260Z,19.20
2019-02-07T07:33:22.432Z,17.37
2019-02-07T07:36:02.851Z,23.93
2019-02-07T07:38:59.506Z,17.97
2019-02-07T07:41:53.811Z,20.77
2019-02-07T07:44:38.162Z,18.30
2019-02-07T07:47:35.515Z,19.10
2019-02-07T07:50:20.917Z,17.43
2019-02-07T07:53:21.339Z,19.10
2019-02-07T07:56:06.814Z,20.80
2019-02-07T07:59:01.198Z,20.57
2019-02-07T08:01:49.616Z,21.83
2019-02-07T08:04:36.496Z,15.13
2019-02-07T08:07:28.103Z,18.93
2019-02-07T08:10:16.416Z,23.60
2019-02-07T08:13:03.486Z,21.63
2019-02-07T08:15:58.552Z,23.47
2019-02-07T08:18:50.132Z,19.43
2019-02-07T08:21:47.315Z,19.20
2019-02-07T08:24:36.260Z,18.73
2019-02-07T08:27:27.586Z,24.47
2019-02-07T08:30:09.507Z,20.87
2019-02-07T08:33:06.835Z,19.97
2019-02-07T08:35:50.247Z,22.17
2019-02-07T08:38:32.881Z,20.13
2019-02-07T08:41:23.908Z,21.97
2019-02-07T08:44:14.136Z,22.10
2019-02-07T08:47:08.745Z,20.67
2019-02-07T08:49:48.868Z,21.80
2019-02-07T08:52:38.357Z,22.47
2019-02-07T08:55:35.649Z,20.27
2019-02-07T08:58:42.385Z,23.43
2019-02-07T09:01:22.701Z,18.90
2019-02-07T09:04:03.535Z,20.77
2019-02-07T09:07:06.951Z,21.73
2019-02-07T09:09:58.068Z,23.37
2019-02-07T09:12:46.400Z,17.67
2019-02-07T09:15:29.114Z,19.00
2019-02-07T09:18:15.801Z,20.20
2019-02-07T09:21:11.065Z,19.03
2019-02-07T09:23:57.728Z,14.30
2019-02-07T09:26:57.866Z,7.67
2019-02-07T09:29:58.088Z,8.13
2019-02-07T09:32:45.658Z,8.50
2019-02-07T09:35:34.112Z,11.43
2019-02-07T09:38:25.185Z,9.87
2019-02-07T09:41:12.121Z,9.37
2019-02-07T09:43:56.415Z,12.63
2019-02-07T09:46:48.296Z,22.87
2019-02-07T09:49:34.313Z,18.87
2019-02-07T09:52:25.791Z,25.53
2019-02-07T09:55:23.182Z,24.10
2019-02-07T09:58:17.336Z,19.20
2019-02-07T10:01:05.636Z,20.80
2019-02-07T10:03:43.096Z,15.37
2019-02-07T10:06:24.987Z,22.60
2019-02-07T10:09:02.449Z,16.77
2019-02-07T10:12:02.781Z,19.80
2019-02-07T10:14:43.908Z,21.30
2019-02-07T10:17:31.759Z,14.73
2019-02-07T10:20:18.424Z,18.33
2019-02-07T10:23:05.397Z,18.30
2019-02-07T10:25:56.719Z,21.73
2019-02-07T10:28:48.088Z,16.97
2019-02-07T10:31:36.353Z,24.47
2019-02-07T10:34:23.365Z,17.13
2019-02-07T10:37:10.010Z,19.20
2019-02-07T10:40:01.320Z,16.70
2019-02-07T10:42:55.769Z,25.63
2019-02-07T10:45:38.668Z,17.77
2019-02-07T10:48:25.798Z,17.50
2019-02-07T10:51:18.593Z,18.30
2019-02-07T10:54:21.991Z,18.00
2019-02-07T10:57:08.534Z,17.97
2019-02-07T10:59:56.955Z,16.73
2019-02-07T11:02:46.434Z,16.70
2019-02-07T11:05:40.185Z,20.67
2019-02-07T11:08:37.319Z,21.80
2019-02-07T11:11:21.568Z,16.60
2019-02-07T11:14:08.508Z,18.67
2019-02-07T11:16:56.753Z,25.53
2019-02-07T11:20:01.651Z,19.13
2019-02-07T11:22:49.903Z,19.50
2019-02-07T11:25:36.548Z,20.10
2019-02-07T11:28:23.544Z,23.63
2019-02-07T11:31:12.533Z,22.20
2019-02-07T11:33:59.172Z,19.17
2019-02-07T11:36:54.143Z,17.33
2019-02-07T11:39:35.441Z,23.30
2019-02-07T11:42:30.051Z,25.10
2019-02-07T11:45:17.180Z,19.27
2019-02-07T11:48:05.514Z,19.37
2019-02-07T11:50:52.256Z,19.60
2019-02-07T11:53:37.128Z,33.43
2019-02-07T11:56:24.029Z,21.83
2019-02-07T11:59:13.538Z,25.63
2019-02-07T12:02:08.736Z,19.53
2019-02-07T12:04:48.691Z,15.23
2019-02-07T12:07:35.712Z,15.07
2019-02-07T12:10:25.014Z,19.03
2019-02-07T12:13:13.390Z,17.30
2019-02-07T12:16:04.709Z,15.57
2019-02-07T12:18:53.041Z,20.67
2019-02-07T12:21:39.720Z,11.10
2019-02-07T12:24:34.100Z,14.30
2019-02-07T12:27:40.360Z,13.87
2019-02-07T12:30:34.475Z,20.63
2019-02-07T12:33:37.805Z,10.40
2019-02-07T12:36:29.027Z,9.20
2019-02-07T12:39:16.066Z,15.10
2019-02-07T12:42:03.224Z,18.70
2019-02-07T12:44:46.215Z,11.73
2019-02-07T12:47:33.160Z,15.53
2019-02-07T12:50:21.533Z,13.83
2019-02-07T12:53:08.307Z,13.37
2019-02-07T12:56:03.164Z,12.47
2019-02-07T12:58:50.113Z,12.40
2019-02-07T13:01:36.923Z,14.43
2019-02-07T13:04:30.245Z,13.40
2019-02-07T13:07:10.321Z,19.63
2019-02-07T13:10:10.668Z,13.93
2019-02-07T13:12:58.933Z,10.63
2019-02-07T13:15:56.174Z,14.97
2019-02-07T13:18:50.672Z,12.00
2019-02-07T13:21:42.211Z,13.23
2019-02-07T13:24:36.383Z,9.50
2019-02-07T13:27:23.505Z,12.17
2019-02-07T13:30:11.350Z,12.03
2019-02-07T13:32:59.760Z,12.30
2019-02-07T13:36:06.058Z,10.30
2019-02-07T13:39:03.243Z,10.00
2019-02-07T13:41:51.552Z,10.17
2019-02-07T13:44:39.844Z,11.13
2019-02-07T13:47:26.783Z,14.13
2019-02-07T13:50:13.796Z,11.83
2019-02-07T13:53:17.311Z,11.73
2019-02-07T13:56:05.772Z,11.47
2019-02-07T13:58:42.743Z,15.20
2019-02-07T14:01:29.424Z,10.07
2019-02-07T14:04:20.497Z,10.73
2019-02-07T14:07:10.008Z,8.80
2019-02-07T14:09:51.824Z,9.67
2019-02-07T14:12:40.148Z,12.77
2019-02-07T14:15:27.658Z,12.03
2019-02-07T14:18:27.813Z,12.33
2019-02-07T14:21:22.423Z,12.80
2019-02-07T14:24:28.888Z,14.10
2019-02-07T14:27:20.666Z,10.47
2019-02-07T14:30:07.549Z,10.17
2019-02-07T14:32:58.627Z,11.00
2019-02-07T14:35:47.987Z,7.03
2019-02-07T14:38:42.335Z,13.10
2019-02-07T14:41:39.793Z,8.30
2019-02-07T14:44:26.740Z,8.23
2019-02-07T14:46:56.306Z,13.87
2019-02-07T14:49:25.869Z,9.00
2019-02-07T14:51:55.760Z,10.50
2019-02-07T14:54:25.288Z,12.33
2019-02-07T14:56:54.946Z,10.50
2019-02-07T14:59:24.454Z,13.67
2019-02-07T15:01:53.891Z,8.97
2019-02-07T15:04:23.384Z,12.30
2019-02-07T15:06:53.101Z,8.23
2019-02-07T15:09:22.917Z,14.10
2019-02-07T15:11:52.263Z,11.07
2019-02-07T15:14:21.637Z,9.87
2019-02-07T15:16:51.029Z,10.13
2019-02-07T15:19:20.444Z,8.27
2019-02-07T15:21:50.152Z,10.67
2019-02-07T15:24:19.592Z,9.90
2019-02-07T15:26:48.945Z,8.00
2019-02-07T15:29:18.272Z,10.07
2019-02-07T15:31:47.637Z,8.97
2019-02-07T15:34:17.089Z,12.03
2019-02-07T15:36:48.549Z,9.00
2019-02-07T15:39:19.252Z,7.07
2019-02-07T15:41:48.812Z,12.97
2019-02-07T15:44:18.290Z,13.37
2019-02-07T15:46:47.667Z,10.37
2019-02-07T15:49:17.035Z,15.20
2019-02-07T15:51:48.064Z,10.40
2019-02-07T15:54:17.495Z,10.97
2019-02-07T15:56:46.854Z,8.93
2019-02-07T15:59:21.670Z,14.20
2019-02-07T16:01:55.711Z,9.03
2019-02-07T16:04:28.285Z,6.53
2019-02-07T16:06:57.691Z,10.13
2019-02-07T16:09:27.073Z,10.50
2019-02-07T16:11:56.556Z,8.27
2019-02-07T16:14:25.987Z,7.83
2019-02-07T16:16:55.371Z,7.83
2019-02-07T16:19:24.688Z,8.33
2019-02-07T16:21:54.166Z,5.70
2019-02-07T16:24:23.526Z,8.57
2019-02-07T16:26:52.951Z,9.13
2019-02-07T16:29:22.335Z,9.60
2019-02-07T16:31:51.785Z,8.37
2019-02-07T16:34:21.213Z,8.97
2019-02-07T16:36:50.781Z,15.17
2019-02-07T16:39:21.088Z,9.73
2019-02-07T16:41:50.472Z,9.33
2019-02-07T16:44:20.020Z,10.07
2019-02-07T16:46:49.681Z,8.43
2019-02-07T16:49:19.227Z,9.73
2019-02-07T16:51:48.612Z,15.83
2019-02-07T16:54:18.095Z,7.03
2019-02-07T16:56:47.502Z,12.03
2019-02-07T16:59:16.976Z,11.00
2019-02-07T17:01:46.855Z,9.27
2019-02-07T17:04:16.273Z,8.00
2019-02-07T17:06:45.759Z,7.23
2019-02-07T17:09:33.836Z,13.70
2019-02-07T17:12:03.193Z,8.87
2019-02-07T17:14:32.676Z,11.67
2019-02-07T17:17:02.001Z,8.53
2019-02-07T17:19:31.424Z,6.37
2019-02-07T17:22:00.896Z,5.93
2019-02-07T17:24:30.280Z,6.60
2019-02-07T17:26:59.696Z,13.00
2019-02-07T17:29:29.090Z,7.70
2019-02-07T17:31:58.471Z,6.83
2019-02-07T17:34:27.818Z,6.03
2019-02-07T17:36:57.284Z,8.93
2019-02-07T17:39:26.624Z,9.43
2019-02-07T17:41:56.012Z,7.87
2019-02-07T17:44:25.359Z,9.73
2019-02-07T17:46:54.750Z,8.57
2019-02-07T17:49:24.449Z,5.87
2019-02-07T17:51:53.932Z,13.70
2019-02-07T17:54:23.295Z,11.77
2019-02-07T17:56:52.676Z,11.07
2019-02-07T17:59:22.218Z,9.57
2019-02-07T18:01:51.718Z,9.37
2019-02-07T18:04:21.142Z,7.47
2019-02-07T18:06:50.513Z,10.50
2019-02-07T18:09:19.882Z,10.17
2019-02-07T18:11:49.268Z,7.93
2019-02-07T18:14:18.968Z,8.87
2019-02-07T18:16:48.385Z,7.13
2019-02-07T18:19:17.852Z,9.37
2019-02-07T18:21:47.252Z,15.03
2019-02-07T18:24:16.742Z,8.30
2019-02-07T18:26:46.165Z,10.00
2019-02-07T18:29:15.776Z,9.03
2019-02-07T18:31:45.167Z,5.63
2019-02-07T18:34:14.823Z,8.13
2019-02-07T18:36:44.208Z,8.17
2019-02-07T18:39:13.672Z,6.07
2019-02-07T18:41:43.107Z,7.23
2019-02-07T18:44:13.080Z,5.77
2019-02-07T18:46:42.506Z,8.30
2019-02-07T18:49:12.050Z,7.07
2019-02-07T18:51:45.647Z,7.07
2019-02-07T18:54:12.624Z,8.80
2019-02-07T18:56:42.025Z,8.37
2019-02-07T18:59:11.933Z,5.60
2019-02-07T19:01:41.577Z,10.17
2019-02-07T19:04:10.902Z,5.93
2019-02-07T19:06:40.383Z,8.63
2019-02-07T19:09:10.009Z,9.83
2019-02-07T19:11:39.474Z,8.63
2019-02-07T19:14:09.278Z,6.57
2019-02-07T19:16:38.873Z,5.60
2019-02-07T19:19:08.325Z,4.03
2019-02-07T19:21:37.645Z,7.77
2019-02-07T19:24:07.019Z,7.30
2019-02-07T19:26:36.486Z,5.23
2019-02-07T19:29:06.382Z,6.23
2019-02-07T19:31:35.872Z,7.03
2019-02-07T19:34:05.431Z,6.40
2019-02-07T19:36:34.940Z,9.17
2019-02-07T19:39:07.143Z,8.03
2019-02-07T19:41:36.567Z,4.93
2019-02-07T19:44:06.583Z,6.83
2019-02-07T19:46:36.217Z,5.00
2019-02-07T19:49:05.792Z,7.20
2019-02-07T19:51:35.166Z,6.93
2019-02-07T19:54:04.742Z,7.93
2019-02-07T19:56:34.290Z,8.20
2019-02-07T19:59:04.317Z,5.87
2019-02-07T20:01:33.876Z,5.70
2019-02-07T20:04:03.390Z,6.17
2019-02-07T20:06:33.942Z,5.70
2019-02-07T20:09:04.663Z,6.40
2019-02-07T20:11:34.963Z,6.10
2019-02-07T20:14:04.860Z,6.20
2019-02-07T20:16:34.352Z,9.53
2019-02-07T20:19:03.922Z,5.60
2019-02-07T20:21:33.411Z,7.93
2019-02-07T20:24:02.830Z,7.23
2019-02-07T20:26:32.239Z,8.27
2019-02-07T20:29:01.653Z,5.60
2019-02-07T20:31:31.240Z,4.03
2019-02-07T20:34:00.672Z,7.53
2019-02-07T20:36:30.083Z,5.33
2019-02-07T20:41:28.446Z,6.47
2019-02-07T20:43:57.840Z,7.53
2019-02-07T20:46:27.233Z,12.23
2019-02-07T20:48:58.261Z,9.53
2019-02-07T20:51:28.340Z,4.17
2019-02-07T20:53:57.767Z,6.33
2019-02-07T20:56:27.106Z,8.10
2019-02-07T20:58:56.588Z,9.17
2019-02-07T21:01:25.956Z,7.20
2019-02-07T21:03:55.523Z,9.40
2019-02-07T21:06:24.928Z,7.80
2019-02-07T21:08:54.427Z,8.73
2019-02-07T21:11:23.815Z,4.93
2019-02-07T21:13:53.188Z,8.47
2019-02-07T21:16:22.579Z,9.40
2019-02-07T21:18:52.288Z,5.80
2019-02-07T21:21:21.753Z,5.10
2019-02-07T21:23:51.216Z,5.00
2019-02-07T21:26:20.668Z,8.07
2019-02-07T21:28:50.098Z,6.37
2019-02-07T21:31:19.556Z,7.93
2019-02-07T21:33:49.044Z,12.07
2019-02-07T21:36:18.729Z,8.20
2019-02-07T21:38:48.142Z,13.47
2019-02-07T21:41:17.545Z,12.80
2019-02-07T21:43:46.926Z,10.00
2019-02-07T21:46:16.336Z,10.33
2019-02-07T21:48:45.757Z,10.53
2019-02-07T21:51:15.250Z,7.17
2019-02-07T21:53:44.596Z,5.40
2019-02-07T21:56:13.985Z,7.07
2019-02-07T21:58:43.332Z,9.27
2019-02-07T22:01:12.747Z,6.30
2019-02-07T22:03:42.056Z,5.33
2019-02-07T22:06:11.418Z,4.33
2019-02-07T22:08:40.746Z,6.60
2019-02-07T22:11:10.110Z,7.40
2019-02-07T22:13:39.529Z,5.00
2019-02-07T22:16:08.947Z,6.03
2019-02-07T22:18:38.261Z,6.40
2019-02-07T22:21:07.566Z,6.20
2019-02-07T22:23:37.164Z,6.07
2019-02-07T22:26:06.627Z,4.83
2019-02-07T22:28:35.959Z,6.63
2019-02-07T22:31:05.311Z,8.30
2019-02-07T22:33:34.653Z,7.90
2019-02-07T22:36:04.124Z,6.97
2019-02-07T22:38:33.883Z,6.97
2019-02-07T22:41:03.213Z,5.13
2019-02-07T22:43:32.564Z,8.13
2019-02-07T22:46:01.934Z,8.77
2019-02-07T22:48:31.270Z,6.63
2019-02-07T22:51:00.625Z,5.10
2019-02-07T22:53:30.342Z,4.37
2019-02-07T22:55:59.648Z,9.90
2019-02-07T22:58:29.040Z,5.80
2019-02-07T23:01:29.315Z,5.07
2019-02-07T23:04:00.398Z,5.20
2019-02-07T23:06:29.782Z,9.47
2019-02-07T23:09:00.604Z,8.00
2019-02-07T23:11:30.052Z,6.53
2019-02-07T23:13:59.450Z,8.80
2019-02-07T23:16:29.233Z,8.33
2019-02-07T23:18:58.642Z,5.67
2019-02-07T23:21:28.059Z,3.43
2019-02-07T23:23:57.502Z,10.63
2019-02-07T23:26:26.882Z,4.53
2019-02-07T23:28:57.189Z,7.10
2019-02-07T23:31:27.007Z,5.90
2019-02-07T23:33:56.438Z,4.10
2019-02-07T23:36:25.778Z,6.90
2019-02-07T23:38:55.116Z,7.90
2019-02-07T23:41:24.478Z,4.97
2019-02-07T23:43:54.086Z,10.33
2019-02-07T23:46:23.677Z,6.63
2019-02-07T23:48:53.027Z,9.73
2019-02-07T23:51:22.546Z,9.53
2019-02-07T23:53:52.215Z,9.47
2019-02-07T23:56:21.526Z,8.10
2019-02-07T23:58:50.901Z,5.87
